sensor_id;sensor_type;location;lat;lon;timestamp;pressure;altitude;pressure_sealevel;temperature;humidity
73240;BME280;61452;40.054;4.110;2022-12-04T00:04:00;101105.66;;;17.18;52.66
73240;BME280;61452;40.054;4.110;2022-12-04T00:09:02;101099.59;;;17.16;52.77
73240;BME280;61452;40.054;4.110;2022-12-04T00:14:06;101085.41;;;17.17;52.57
73240;BME280;61452;40.054;4.110;2022-12-04T00:19:08;101075.66;;;17.17;52.55
73240;BME280;61452;40.054;4.110;2022-12-04T00:24:11;101081.69;;;17.19;52.39
73240;BME280;61452;40.054;4.110;2022-12-04T00:29:13;101077.34;;;17.18;52.55
73240;BME280;61452;40.054;4.110;2022-12-04T00:34:15;101076.59;;;17.16;52.67
73240;BME280;61452;40.054;4.110;2022-12-04T00:39:17;101075.88;;;17.14;52.76
73240;BME280;61452;40.054;4.110;2022-12-04T00:44:19;101070.69;;;17.13;52.64
73240;BME280;61452;40.054;4.110;2022-12-04T00:49:21;101076.94;;;17.12;52.65
73240;BME280;61452;40.054;4.110;2022-12-04T00:54:23;101065.38;;;17.13;52.46
73240;BME280;61452;40.054;4.110;2022-12-04T00:59:25;101059.03;;;17.15;52.47
73240;BME280;61452;40.054;4.110;2022-12-04T01:04:27;101048.28;;;17.17;52.25
73240;BME280;61452;40.054;4.110;2022-12-04T01:09:29;101058.03;;;17.16;52.37
73240;BME280;61452;40.054;4.110;2022-12-04T01:14:32;101048.63;;;17.12;52.57
73240;BME280;61452;40.054;4.110;2022-12-04T01:19:34;101051.28;;;17.12;52.30
73240;BME280;61452;40.054;4.110;2022-12-04T01:24:36;101051.38;;;17.11;52.27
73240;BME280;61452;40.054;4.110;2022-12-04T01:29:39;101045.13;;;17.12;52.26
73240;BME280;61452;40.054;4.110;2022-12-04T01:34:41;101054.78;;;17.13;52.19
73240;BME280;61452;40.054;4.110;2022-12-04T01:39:43;101051.06;;;17.15;52.20
73240;BME280;61452;40.054;4.110;2022-12-04T01:50:24;101056.69;;;17.11;52.66
73240;BME280;61452;40.054;4.110;2022-12-04T01:55:26;101044.00;;;17.03;52.58
73240;BME280;61452;40.054;4.110;2022-12-04T02:00:29;101056.69;;;17.11;52.45
73240;BME280;61452;40.054;4.110;2022-12-04T02:05:31;101059.22;;;17.12;52.45
73240;BME280;61452;40.054;4.110;2022-12-04T02:10:52;101057.44;;;17.13;52.28
73240;BME280;61452;40.054;4.110;2022-12-04T02:21:36;101065.59;;;17.10;52.61
73240;BME280;61452;40.054;4.110;2022-12-04T02:26:46;101070.06;;;17.09;52.66
73240;BME280;61452;40.054;4.110;2022-12-04T02:37:03;101061.03;;;17.12;52.47
73240;BME280;61452;40.054;4.110;2022-12-04T02:42:24;101061.03;;;17.12;52.55
73240;BME280;61452;40.054;4.110;2022-12-04T02:47:31;101066.44;;;17.10;52.65
73240;BME280;61452;40.054;4.110;2022-12-04T02:52:39;101061.38;;;17.07;52.48
73240;BME280;61452;40.054;4.110;2022-12-04T02:57:47;101055.13;;;17.08;52.13
73240;BME280;61452;40.054;4.110;2022-12-04T03:02:58;101058.63;;;17.09;52.38
73240;BME280;61452;40.054;4.110;2022-12-04T03:08:07;101049.69;;;17.10;52.26
73240;BME280;61452;40.054;4.110;2022-12-04T03:13:19;101050.53;;;17.10;52.51
73240;BME280;61452;40.054;4.110;2022-12-04T03:18:27;101059.47;;;17.09;52.54
73240;BME280;61452;40.054;4.110;2022-12-04T03:24:04;101060.63;;;17.05;52.37
73240;BME280;61452;40.054;4.110;2022-12-04T03:29:41;101057.88;;;17.07;52.63
73240;BME280;61452;40.054;4.110;2022-12-04T03:40:29;101063.91;;;17.09;52.32
73240;BME280;61452;40.054;4.110;2022-12-04T03:51:07;101055.31;;;17.05;52.71
73240;BME280;61452;40.054;4.110;2022-12-04T03:56:14;101036.03;;;17.03;52.66
73240;BME280;61452;40.054;4.110;2022-12-04T04:01:21;101039.31;;;17.07;52.52
73240;BME280;61452;40.054;4.110;2022-12-04T04:06:37;101041.97;;;17.07;52.42
73240;BME280;61452;40.054;4.110;2022-12-04T04:11:45;101036.56;;;17.08;52.55
73240;BME280;61452;40.054;4.110;2022-12-04T04:16:54;101039.31;;;17.07;52.67
73240;BME280;61452;40.054;4.110;2022-12-04T04:22:19;101028.53;;;16.97;52.67
73240;BME280;61452;40.054;4.110;2022-12-04T04:27:53;101043.88;;;17.05;52.61
73240;BME280;61452;40.054;4.110;2022-12-04T04:33:10;101043.75;;;17.06;52.17
73240;BME280;61452;40.054;4.110;2022-12-04T04:38:21;101034.00;;;17.07;52.28
73240;BME280;61452;40.054;4.110;2022-12-04T04:43:39;101038.47;;;17.06;52.44
73240;BME280;61452;40.054;4.110;2022-12-04T04:48:48;101034.22;;;17.04;52.38
73240;BME280;61452;40.054;4.110;2022-12-04T04:53:55;101043.16;;;17.03;52.33
73240;BME280;61452;40.054;4.110;2022-12-04T04:58:58;101043.00;;;17.04;52.45
73240;BME280;61452;40.054;4.110;2022-12-04T05:04:02;101040.25;;;17.06;52.32
73240;BME280;61452;40.054;4.110;2022-12-04T05:09:05;101034.13;;;17.05;52.30
73240;BME280;61452;40.054;4.110;2022-12-04T05:14:07;101038.47;;;17.06;52.44
73240;BME280;61452;40.054;4.110;2022-12-04T05:19:10;101044.00;;;17.03;52.52
73240;BME280;61452;40.054;4.110;2022-12-04T05:24:30;101047.59;;;17.02;52.63
73240;BME280;61452;40.054;4.110;2022-12-04T05:29:33;101049.41;;;17.02;52.46
73240;BME280;61452;40.054;4.110;2022-12-04T05:34:36;101057.44;;;17.00;52.54
73240;BME280;61452;40.054;4.110;2022-12-04T05:39:39;101060.00;;;17.02;52.46
73240;BME280;61452;40.054;4.110;2022-12-04T05:44:41;101071.31;;;17.04;52.41
73240;BME280;61452;40.054;4.110;2022-12-04T05:49:43;101070.50;;;17.03;52.45
73240;BME280;61452;40.054;4.110;2022-12-04T05:54:45;101082.91;;;17.03;52.65
73240;BME280;61452;40.054;4.110;2022-12-04T05:59:49;101099.84;;;17.00;52.59
73240;BME280;61452;40.054;4.110;2022-12-04T06:04:51;101098.91;;;17.01;52.52
73240;BME280;61452;40.054;4.110;2022-12-04T06:09:54;101097.19;;;17.00;52.59
73240;BME280;61452;40.054;4.110;2022-12-04T06:14:56;101091.06;;;16.99;52.65
73240;BME280;61452;40.054;4.110;2022-12-04T06:19:58;101101.44;;;17.03;52.40
73240;BME280;61452;40.054;4.110;2022-12-04T06:25:01;101104.09;;;17.03;52.45
73240;BME280;61452;40.054;4.110;2022-12-04T06:30:04;101101.56;;;17.01;52.55
73240;BME280;61452;40.054;4.110;2022-12-04T06:35:07;101115.75;;;17.00;52.54
73240;BME280;61452;40.054;4.110;2022-12-04T06:40:09;101119.34;;;16.99;52.48
73240;BME280;61452;40.054;4.110;2022-12-04T06:45:11;101127.19;;;17.01;52.49
73240;BME280;61452;40.054;4.110;2022-12-04T06:50:13;101123.59;;;17.02;52.44
73240;BME280;61452;40.054;4.110;2022-12-04T06:55:15;101126.25;;;17.02;52.53
73240;BME280;61452;40.054;4.110;2022-12-04T07:00:17;101124.56;;;17.01;52.71
73240;BME280;61452;40.054;4.110;2022-12-04T07:05:20;101128.25;;;16.98;52.63
73240;BME280;61452;40.054;4.110;2022-12-04T07:10:22;101128.16;;;16.99;52.57
73240;BME280;61452;40.054;4.110;2022-12-04T07:15:23;101129.00;;;17.00;52.47
73240;BME280;61452;40.054;4.110;2022-12-04T07:20:26;101136.00;;;17.01;52.46
73240;BME280;61452;40.054;4.110;2022-12-04T07:25:28;101130.69;;;17.01;52.55
73240;BME280;61452;40.054;4.110;2022-12-04T07:30:30;101142.25;;;17.00;52.61
73240;BME280;61452;40.054;4.110;2022-12-04T07:35:32;101143.19;;;16.99;52.74
73240;BME280;61452;40.054;4.110;2022-12-04T07:40:36;101154.75;;;16.98;52.71
73240;BME280;61452;40.054;4.110;2022-12-04T07:45:38;101152.34;;;16.95;52.79
73240;BME280;61452;40.054;4.110;2022-12-04T07:50:40;101138.13;;;16.96;52.61
73240;BME280;61452;40.054;4.110;2022-12-04T07:55:42;101136.44;;;16.95;52.44
73240;BME280;61452;40.054;4.110;2022-12-04T08:00:44;101140.78;;;16.96;52.34
73240;BME280;61452;40.054;4.110;2022-12-04T08:05:46;101142.34;;;16.98;52.42
73240;BME280;61452;40.054;4.110;2022-12-04T08:10:48;101156.44;;;16.99;52.35
73240;BME280;61452;40.054;4.110;2022-12-04T08:15:50;101159.94;;;16.99;52.34
73240;BME280;61452;40.054;4.110;2022-12-04T08:20:52;101170.78;;;16.96;52.68
73240;BME280;61452;40.054;4.110;2022-12-04T08:25:57;101163.69;;;16.97;52.50
73240;BME280;61452;40.054;4.110;2022-12-04T08:31:27;101166.53;;;16.94;52.59
73240;BME280;61452;40.054;4.110;2022-12-04T08:36:30;101157.63;;;16.95;52.53
73240;BME280;61452;40.054;4.110;2022-12-04T08:41:32;101174.47;;;16.94;52.60
73240;BME280;61452;40.054;4.110;2022-12-04T08:46:34;101189.53;;;16.93;52.57
73240;BME280;61452;40.054;4.110;2022-12-04T08:51:36;101195.56;;;16.95;52.36
73240;BME280;61452;40.054;4.110;2022-12-04T08:56:39;101202.44;;;16.98;52.33
73240;BME280;61452;40.054;4.110;2022-12-04T09:01:41;101198.94;;;16.97;52.46
73240;BME280;61452;40.054;4.110;2022-12-04T09:06:43;101197.16;;;16.98;52.51
73240;BME280;61452;40.054;4.110;2022-12-04T09:11:45;101191.13;;;16.96;52.47
73240;BME280;61452;40.054;4.110;2022-12-04T09:16:47;101199.09;;;16.96;52.48
73240;BME280;61452;40.054;4.110;2022-12-04T09:21:49;101203.63;;;16.94;52.12
73240;BME280;61452;40.054;4.110;2022-12-04T09:26:51;101196.44;;;16.96;52.04
73240;BME280;61452;40.054;4.110;2022-12-04T09:31:53;101205.09;;;16.98;52.08
73240;BME280;61452;40.054;4.110;2022-12-04T09:36:55;101199.81;;;16.98;52.10
73240;BME280;61452;40.054;4.110;2022-12-04T09:42:44;101199.81;;;16.98;52.29
73240;BME280;61452;40.054;4.110;2022-12-04T09:47:30;101206.38;;;16.92;52.45
73240;BME280;61452;40.054;4.110;2022-12-04T09:57:50;101215.69;;;16.98;52.25
73240;BME280;61452;40.054;4.110;2022-12-04T10:03:04;101221.00;;;16.98;52.23
73240;BME280;61452;40.054;4.110;2022-12-04T10:08:25;101213.38;;;16.93;52.38
73240;BME280;61452;40.054;4.110;2022-12-04T10:19:09;101237.13;;;16.95;52.47
73240;BME280;61452;40.054;4.110;2022-12-04T10:29:49;101225.44;;;16.97;52.37
73240;BME280;61452;40.054;4.110;2022-12-04T10:34:55;101241.34;;;16.97;52.56
73240;BME280;61452;40.054;4.110;2022-12-04T10:40:10;101223.66;;;16.98;52.63
73240;BME280;61452;40.054;4.110;2022-12-04T10:45:14;101221.97;;;16.97;52.60
73240;BME280;61452;40.054;4.110;2022-12-04T10:50:19;101223.78;;;16.96;52.40
73240;BME280;61452;40.054;4.110;2022-12-04T10:55:33;101229.94;;;16.97;52.69
73240;BME280;61452;40.054;4.110;2022-12-04T11:00:37;101215.84;;;16.96;52.60
73240;BME280;61452;40.054;4.110;2022-12-04T11:05:45;101226.31;;;16.98;52.75
73240;BME280;61452;40.054;4.110;2022-12-04T11:10:59;101227.16;;;16.98;52.78
73240;BME280;61452;40.054;4.110;2022-12-04T11:16:02;101224.41;;;17.00;52.85
73240;BME280;61452;40.054;4.110;2022-12-04T11:21:13;101218.34;;;16.98;53.01
73240;BME280;61452;40.054;4.110;2022-12-04T11:26:26;101211.38;;;16.97;53.09
73240;BME280;61452;40.054;4.110;2022-12-04T11:31:30;101208.59;;;16.98;52.64
73240;BME280;61452;40.054;4.110;2022-12-04T11:36:41;101201.59;;;16.97;52.78
73240;BME280;61452;40.054;4.110;2022-12-04T11:41:43;101198.84;;;16.99;52.76
73240;BME280;61452;40.054;4.110;2022-12-04T11:46:51;101206.81;;;16.99;52.83
73240;BME280;61452;40.054;4.110;2022-12-04T11:52:11;101211.16;;;17.00;52.87
73240;BME280;61452;40.054;4.110;2022-12-04T12:02:49;101182.09;;;16.98;52.96
73240;BME280;61452;40.054;4.110;2022-12-04T12:08:08;101184.75;;;16.98;52.87
73240;BME280;61452;40.054;4.110;2022-12-04T12:24:12;101182.00;;;17.00;52.73
73240;BME280;61452;40.054;4.110;2022-12-04T12:34:47;101177.47;;;17.02;52.78
73240;BME280;61452;40.054;4.110;2022-12-04T12:40:28;101169.59;;;17.01;52.89
73240;BME280;61452;40.054;4.110;2022-12-04T12:50:58;101159.75;;;17.03;52.59
73240;BME280;61452;40.054;4.110;2022-12-04T12:56:33;101165.06;;;17.03;52.59
73240;BME280;61452;40.054;4.110;2022-12-04T13:01:50;101158.78;;;17.04;52.69
73240;BME280;61452;40.054;4.110;2022-12-04T13:12:37;101173.00;;;17.03;52.99
73240;BME280;61452;40.054;4.110;2022-12-04T13:17:44;101172.88;;;17.04;53.08
73240;BME280;61452;40.054;4.110;2022-12-04T13:23:09;101187.09;;;17.03;53.06
73240;BME280;61452;40.054;4.110;2022-12-04T13:44:20;101171.81;;;17.07;53.13
73240;BME280;61452;40.054;4.110;2022-12-04T13:49:48;101184.22;;;17.06;53.33
73240;BME280;61452;40.054;4.110;2022-12-04T13:54:57;101189.53;;;17.06;53.66
73240;BME280;61452;40.054;4.110;2022-12-04T14:00:05;101189.63;;;17.05;53.50
73240;BME280;61452;40.054;4.110;2022-12-04T14:05:13;101187.72;;;17.07;53.08
73240;BME280;61452;40.054;4.110;2022-12-04T14:15:23;101186.69;;;17.09;53.00
73240;BME280;61452;40.054;4.110;2022-12-04T14:20:29;101194.63;;;17.09;53.02
73240;BME280;61452;40.054;4.110;2022-12-04T14:25:35;101205.09;;;17.11;53.13
73240;BME280;61452;40.054;4.110;2022-12-04T14:30:39;101206.91;;;17.10;53.34
73240;BME280;61452;40.054;4.110;2022-12-04T14:35:48;101207.03;;;17.09;53.45
73240;BME280;61452;40.054;4.110;2022-12-04T14:40:53;101221.16;;;17.09;53.38
73240;BME280;61452;40.054;4.110;2022-12-04T14:51:30;101196.44;;;17.09;53.33
73240;BME280;61452;40.054;4.110;2022-12-04T15:02:18;101197.06;;;17.12;53.25
73240;BME280;61452;40.054;4.110;2022-12-04T15:07:24;101181.16;;;17.12;53.22
73240;BME280;61452;40.054;4.110;2022-12-04T15:12:28;101205.00;;;17.12;53.21
73240;BME280;61452;40.054;4.110;2022-12-04T15:17:37;101210.41;;;17.11;53.09
73240;BME280;61452;40.054;4.110;2022-12-04T15:22:39;101230.66;;;17.12;53.02
73240;BME280;61452;40.054;4.110;2022-12-04T15:27:41;101228.00;;;17.12;53.07
73240;BME280;61452;40.054;4.110;2022-12-04T15:32:44;101235.88;;;17.13;53.03
73240;BME280;61452;40.054;4.110;2022-12-04T15:37:47;101245.63;;;17.13;52.97
73240;BME280;61452;40.054;4.110;2022-12-04T15:42:50;101250.69;;;17.16;53.08
73240;BME280;61452;40.054;4.110;2022-12-04T15:47:53;101259.63;;;17.15;53.15
73240;BME280;61452;40.054;4.110;2022-12-04T15:58:15;101280.94;;;17.13;53.28
73240;BME280;61452;40.054;4.110;2022-12-04T16:03:36;101284.34;;;17.15;53.15
73240;BME280;61452;40.054;4.110;2022-12-04T16:08:42;101288.66;;;17.16;53.23
73240;BME280;61452;40.054;4.110;2022-12-04T16:14:04;101326.53;;;17.18;53.57
73240;BME280;61452;40.054;4.110;2022-12-04T16:19:15;101348.69;;;17.17;53.78
73240;BME280;61452;40.054;4.110;2022-12-04T16:24:18;101349.53;;;17.18;54.52
73240;BME280;61452;40.054;4.110;2022-12-04T16:29:20;101357.50;;;17.18;55.04
73240;BME280;61452;40.054;4.110;2022-12-04T16:34:22;101355.78;;;17.17;55.81
73240;BME280;61452;40.054;4.110;2022-12-04T16:39:24;101363.75;;;17.17;56.08
73240;BME280;61452;40.054;4.110;2022-12-04T16:44:26;101365.53;;;17.16;56.27
73240;BME280;61452;40.054;4.110;2022-12-04T16:49:28;101360.13;;;17.18;55.91
73240;BME280;61452;40.054;4.110;2022-12-04T16:54:30;101361.84;;;17.19;55.56
73240;BME280;61452;40.054;4.110;2022-12-04T16:59:33;101363.53;;;17.20;55.56
73240;BME280;61452;40.054;4.110;2022-12-04T17:04:35;101366.28;;;17.18;55.70
73240;BME280;61452;40.054;4.110;2022-12-04T17:09:37;101376.91;;;17.18;55.37
73240;BME280;61452;40.054;4.110;2022-12-04T17:14:39;101374.25;;;17.18;55.31
73240;BME280;61452;40.054;4.110;2022-12-04T17:19:42;101375.00;;;17.20;54.80
73240;BME280;61452;40.054;4.110;2022-12-04T17:24:44;101365.25;;;17.21;54.30
73240;BME280;61452;40.054;4.110;2022-12-04T17:29:55;101374.06;;;17.21;54.51
73240;BME280;61452;40.054;4.110;2022-12-04T17:34:57;101373.31;;;17.19;54.60
73240;BME280;61452;40.054;4.110;2022-12-04T17:39:59;101390.16;;;17.18;54.27
73240;BME280;61452;40.054;4.110;2022-12-04T17:45:02;101387.41;;;17.20;53.99
73240;BME280;61452;40.054;4.110;2022-12-04T17:50:05;101383.91;;;17.19;53.84
73240;BME280;61452;40.054;4.110;2022-12-04T17:55:07;101369.03;;;17.17;54.00
73240;BME280;61452;40.054;4.110;2022-12-04T18:00:09;101380.31;;;17.20;54.09
73240;BME280;61452;40.054;4.110;2022-12-04T18:05:14;101391.84;;;17.19;53.96
73240;BME280;61452;40.054;4.110;2022-12-04T18:10:17;101402.47;;;17.19;53.75
73240;BME280;61452;40.054;4.110;2022-12-04T18:15:19;101414.69;;;17.22;53.68
73240;BME280;61452;40.054;4.110;2022-12-04T18:20:21;101408.53;;;17.21;53.79
73240;BME280;61452;40.054;4.110;2022-12-04T18:25:23;101414.69;;;17.22;53.83
73240;BME280;61452;40.054;4.110;2022-12-04T18:30:24;101429.81;;;17.20;53.84
73240;BME280;61452;40.054;4.110;2022-12-04T18:35:26;101438.63;;;17.20;53.78
73240;BME280;61452;40.054;4.110;2022-12-04T18:40:28;101439.56;;;17.19;53.73
73240;BME280;61452;40.054;4.110;2022-12-04T18:45:30;101442.31;;;17.18;53.71
73240;BME280;61452;40.054;4.110;2022-12-04T18:50:32;101460.69;;;17.21;53.58
73240;BME280;61452;40.054;4.110;2022-12-04T18:55:36;101465.22;;;17.19;53.65
73240;BME280;61452;40.054;4.110;2022-12-04T19:00:38;101461.72;;;17.18;53.48
73240;BME280;61452;40.054;4.110;2022-12-04T19:05:49;101477.53;;;17.20;53.05
73240;BME280;61452;40.054;4.110;2022-12-04T19:10:51;101484.56;;;17.21;53.18
73240;BME280;61452;40.054;4.110;2022-12-04T19:15:53;101488.06;;;17.21;53.22
73240;BME280;61452;40.054;4.110;2022-12-04T19:20:56;101489.94;;;17.19;53.38
73240;BME280;61452;40.054;4.110;2022-12-04T19:25:59;101497.91;;;17.19;53.32
73240;BME280;61452;40.054;4.110;2022-12-04T19:31:01;101497.81;;;17.21;53.05
73240;BME280;61452;40.054;4.110;2022-12-04T19:36:04;101502.16;;;17.22;53.13
73240;BME280;61452;40.054;4.110;2022-12-04T19:41:11;101503.97;;;17.21;53.07
73240;BME280;61452;40.054;4.110;2022-12-04T19:46:17;101508.41;;;17.21;53.31
73240;BME280;61452;40.054;4.110;2022-12-04T19:51:20;101507.66;;;17.19;53.33
73240;BME280;61452;40.054;4.110;2022-12-04T19:56:24;101511.06;;;17.21;53.17
73240;BME280;61452;40.054;4.110;2022-12-04T20:01:28;101520.81;;;17.20;53.19
73240;BME280;61452;40.054;4.110;2022-12-04T20:06:39;101518.25;;;17.19;53.09
73240;BME280;61452;40.054;4.110;2022-12-04T20:11:41;101537.56;;;17.21;52.82
73240;BME280;61452;40.054;4.110;2022-12-04T20:16:43;101540.22;;;17.21;52.74
73240;BME280;61452;40.054;4.110;2022-12-04T20:21:47;101549.03;;;17.21;52.91
73240;BME280;61452;40.054;4.110;2022-12-04T20:26:49;101552.72;;;17.19;53.04
73240;BME280;61452;40.054;4.110;2022-12-04T20:31:51;101559.81;;;17.18;53.04
73240;BME280;61452;40.054;4.110;2022-12-04T20:36:53;101576.50;;;17.20;52.88
73240;BME280;61452;40.054;4.110;2022-12-04T20:41:55;101567.59;;;17.21;52.93
73240;BME280;61452;40.054;4.110;2022-12-04T20:46:57;101570.25;;;17.21;53.01
73240;BME280;61452;40.054;4.110;2022-12-04T20:51:59;101568.53;;;17.20;52.98
73240;BME280;61452;40.054;4.110;2022-12-04T20:57:01;101577.44;;;17.19;52.99
73240;BME280;61452;40.054;4.110;2022-12-04T21:02:03;101596.84;;;17.20;52.96
73240;BME280;61452;40.054;4.110;2022-12-04T21:07:06;101588.13;;;17.18;52.97
73240;BME280;61452;40.054;4.110;2022-12-04T21:12:09;101587.19;;;17.19;52.92
73240;BME280;61452;40.054;4.110;2022-12-04T21:17:29;101589.75;;;17.20;52.94
73240;BME280;61452;40.054;4.110;2022-12-04T21:22:31;101605.66;;;17.20;52.84
73240;BME280;61452;40.054;4.110;2022-12-04T21:27:33;101595.91;;;17.21;52.81
73240;BME280;61452;40.054;4.110;2022-12-04T21:32:35;101596.94;;;17.18;52.86
73240;BME280;61452;40.054;4.110;2022-12-04T21:37:37;101582.28;;;17.13;52.68
73240;BME280;61452;40.054;4.110;2022-12-04T21:42:39;101592.41;;;17.20;52.75
73240;BME280;61452;40.054;4.110;2022-12-04T21:47:41;101591.53;;;17.20;52.69
73240;BME280;61452;40.054;4.110;2022-12-04T21:52:43;101590.59;;;17.21;52.81
73240;BME280;61452;40.054;4.110;2022-12-04T21:57:45;101599.59;;;17.18;52.92
73240;BME280;61452;40.054;4.110;2022-12-04T22:02:47;101608.31;;;17.20;52.95
73240;BME280;61452;40.054;4.110;2022-12-04T22:07:49;101614.63;;;17.18;52.89
73240;BME280;61452;40.054;4.110;2022-12-04T22:12:51;101612.00;;;17.18;52.91
73240;BME280;61452;40.054;4.110;2022-12-04T22:17:53;101624.31;;;17.19;52.85
73240;BME280;61452;40.054;4.110;2022-12-04T22:22:55;101619.84;;;17.19;52.79
73240;BME280;61452;40.054;4.110;2022-12-04T22:27:58;101618.91;;;17.20;52.76
73240;BME280;61452;40.054;4.110;2022-12-04T22:33:00;101614.63;;;17.18;52.92
73240;BME280;61452;40.054;4.110;2022-12-04T22:38:02;101628.84;;;17.17;53.00
73240;BME280;61452;40.054;4.110;2022-12-04T22:43:04;101628.75;;;17.18;52.49
73240;BME280;61452;40.054;4.110;2022-12-04T22:48:06;101626.94;;;17.19;52.60
73240;BME280;61452;40.054;4.110;2022-12-04T22:53:08;101633.09;;;17.19;52.65
73240;BME280;61452;40.054;4.110;2022-12-04T22:58:10;101625.16;;;17.19;52.75
73240;BME280;61452;40.054;4.110;2022-12-04T23:03:14;101627.03;;;17.17;52.90
73240;BME280;61452;40.054;4.110;2022-12-04T23:08:16;101628.84;;;17.17;52.88
73240;BME280;61452;40.054;4.110;2022-12-04T23:13:18;101630.63;;;17.16;52.79
73240;BME280;61452;40.054;4.110;2022-12-04T23:18:20;101627.03;;;17.17;52.70
73240;BME280;61452;40.054;4.110;2022-12-04T23:23:22;101630.53;;;17.18;52.68
73240;BME280;61452;40.054;4.110;2022-12-04T23:28:24;101623.44;;;17.18;52.69
73240;BME280;61452;40.054;4.110;2022-12-04T23:33:26;101627.03;;;17.17;52.77
73240;BME280;61452;40.054;4.110;2022-12-04T23:38:29;101627.97;;;17.16;52.91
73240;BME280;61452;40.054;4.110;2022-12-04T23:43:31;101620.88;;;17.17;52.83
73240;BME280;61452;40.054;4.110;2022-12-04T23:48:34;101621.81;;;17.16;52.77
73240;BME280;61452;40.054;4.110;2022-12-04T23:53:36;101626.19;;;17.17;52.44
73240;BME280;61452;40.054;4.110;2022-12-04T23:58:39;101613.78;;;17.17;52.28
